sensor_id;sensor_type;location;lat;lon;timestamp;P1;durP1;ratioP1;P2;durP2;ratioP2
41627;SDS011;27321;50.816;6.054;2022-09-03T00:00:24;0.73;;;0.73;;
41627;SDS011;27321;50.816;6.054;2022-09-03T00:03:30;1.25;;;0.73;;
41627;SDS011;27321;50.816;6.054;2022-09-03T00:06:51;0.80;;;0.80;;
41627;SDS011;27321;50.816;6.054;2022-09-03T00:10:03;1.00;;;0.80;;
41627;SDS011;27321;50.816;6.054;2022-09-03T00:13:08;0.75;;;0.75;;
41627;SDS011;27321;50.816;6.054;2022-09-03T00:16:14;0.60;;;0.60;;
41627;SDS011;27321;50.816;6.054;2022-09-03T00:19:22;0.60;;;0.60;;
41627;SDS011;27321;50.816;6.054;2022-09-03T00:22:29;0.70;;;0.70;;
41627;SDS011;27321;50.816;6.054;2022-09-03T00:28:55;0.98;;;0.68;;
41627;SDS011;27321;50.816;6.054;2022-09-03T00:32:06;0.85;;;0.85;;
41627;SDS011;27321;50.816;6.054;2022-09-03T00:38:31;1.30;;;0.80;;
41627;SDS011;27321;50.816;6.054;2022-09-03T00:48:29;1.67;;;0.80;;
41627;SDS011;27321;50.816;6.054;2022-09-03T00:51:39;1.30;;;0.90;;
41627;SDS011;27321;50.816;6.054;2022-09-03T00:55:07;1.60;;;0.85;;
41627;SDS011;27321;50.816;6.054;2022-09-03T00:58:37;0.95;;;0.70;;
41627;SDS011;27321;50.816;6.054;2022-09-03T01:09:00;1.13;;;0.80;;
41627;SDS011;27321;50.816;6.054;2022-09-03T01:12:34;0.85;;;0.70;;
41627;SDS011;27321;50.816;6.054;2022-09-03T01:16:32;1.67;;;0.85;;
41627;SDS011;27321;50.816;6.054;2022-09-03T01:35:03;0.95;;;0.93;;
41627;SDS011;27321;50.816;6.054;2022-09-03T01:42:07;0.90;;;0.85;;
41627;SDS011;27321;50.816;6.054;2022-09-03T01:48:58;1.00;;;0.80;;
41627;SDS011;27321;50.816;6.054;2022-09-03T01:52:37;1.48;;;1.25;;
41627;SDS011;27321;50.816;6.054;2022-09-03T02:05:32;0.95;;;0.90;;
41627;SDS011;27321;50.816;6.054;2022-09-03T02:08:34;0.90;;;0.88;;
41627;SDS011;27321;50.816;6.054;2022-09-03T02:14:37;1.00;;;0.90;;
41627;SDS011;27321;50.816;6.054;2022-09-03T02:17:38;0.88;;;0.88;;
41627;SDS011;27321;50.816;6.054;2022-09-03T02:20:42;0.70;;;0.70;;
41627;SDS011;27321;50.816;6.054;2022-09-03T02:23:47;0.88;;;0.82;;
41627;SDS011;27321;50.816;6.054;2022-09-03T02:26:49;1.17;;;0.90;;
41627;SDS011;27321;50.816;6.054;2022-09-03T02:29:57;1.15;;;1.00;;
41627;SDS011;27321;50.816;6.054;2022-09-03T02:32:59;1.75;;;0.90;;
41627;SDS011;27321;50.816;6.054;2022-09-03T02:36:00;2.00;;;0.98;;
41627;SDS011;27321;50.816;6.054;2022-09-03T02:39:08;0.88;;;0.88;;
41627;SDS011;27321;50.816;6.054;2022-09-03T02:42:09;0.60;;;0.60;;
41627;SDS011;27321;50.816;6.054;2022-09-03T02:45:28;0.82;;;0.82;;
41627;SDS011;27321;50.816;6.054;2022-09-03T02:48:30;0.70;;;0.70;;
41627;SDS011;27321;50.816;6.054;2022-09-03T02:54:38;0.85;;;0.70;;
41627;SDS011;27321;50.816;6.054;2022-09-03T02:57:40;0.90;;;0.90;;
41627;SDS011;27321;50.816;6.054;2022-09-03T03:00:41;0.98;;;0.80;;
41627;SDS011;27321;50.816;6.054;2022-09-03T03:03:42;1.30;;;0.85;;
41627;SDS011;27321;50.816;6.054;2022-09-03T03:06:43;0.70;;;0.70;;
41627;SDS011;27321;50.816;6.054;2022-09-03T03:09:44;0.93;;;0.90;;
41627;SDS011;27321;50.816;6.054;2022-09-03T03:12:45;0.88;;;0.88;;
41627;SDS011;27321;50.816;6.054;2022-09-03T03:15:46;1.25;;;1.08;;
41627;SDS011;27321;50.816;6.054;2022-09-03T03:18:48;0.80;;;0.80;;
41627;SDS011;27321;50.816;6.054;2022-09-03T03:21:52;0.98;;;0.88;;
41627;SDS011;27321;50.816;6.054;2022-09-03T03:24:53;0.70;;;0.70;;
41627;SDS011;27321;50.816;6.054;2022-09-03T03:27:56;1.38;;;0.80;;
41627;SDS011;27321;50.816;6.054;2022-09-03T03:30:57;0.70;;;0.70;;
41627;SDS011;27321;50.816;6.054;2022-09-03T03:34:07;1.00;;;0.88;;
41627;SDS011;27321;50.816;6.054;2022-09-03T03:37:08;0.82;;;0.82;;
41627;SDS011;27321;50.816;6.054;2022-09-03T03:40:09;0.85;;;0.80;;
41627;SDS011;27321;50.816;6.054;2022-09-03T03:43:11;0.80;;;0.80;;
41627;SDS011;27321;50.816;6.054;2022-09-03T03:46:12;0.80;;;0.80;;
41627;SDS011;27321;50.816;6.054;2022-09-03T03:49:16;1.02;;;0.77;;
41627;SDS011;27321;50.816;6.054;2022-09-03T03:52:17;0.82;;;0.82;;
41627;SDS011;27321;50.816;6.054;2022-09-03T03:55:18;2.97;;;0.73;;
41627;SDS011;27321;50.816;6.054;2022-09-03T03:58:19;0.63;;;0.63;;
41627;SDS011;27321;50.816;6.054;2022-09-03T04:01:21;1.27;;;0.82;;
41627;SDS011;27321;50.816;6.054;2022-09-03T04:04:24;0.95;;;0.90;;
41627;SDS011;27321;50.816;6.054;2022-09-03T04:07:25;1.27;;;0.80;;
41627;SDS011;27321;50.816;6.054;2022-09-03T04:10:26;1.13;;;1.02;;
41627;SDS011;27321;50.816;6.054;2022-09-03T04:13:31;0.90;;;0.90;;
41627;SDS011;27321;50.816;6.054;2022-09-03T04:16:34;1.10;;;1.00;;
41627;SDS011;27321;50.816;6.054;2022-09-03T04:19:35;0.85;;;0.85;;
41627;SDS011;27321;50.816;6.054;2022-09-03T04:22:37;0.93;;;0.93;;
41627;SDS011;27321;50.816;6.054;2022-09-03T04:25:38;1.27;;;1.10;;
41627;SDS011;27321;50.816;6.054;2022-09-03T04:28:41;0.68;;;0.68;;
41627;SDS011;27321;50.816;6.054;2022-09-03T04:31:42;1.00;;;1.00;;
41627;SDS011;27321;50.816;6.054;2022-09-03T04:35:03;1.15;;;1.13;;
41627;SDS011;27321;50.816;6.054;2022-09-03T04:44:09;0.98;;;0.90;;
41627;SDS011;27321;50.816;6.054;2022-09-03T04:47:13;1.73;;;1.40;;
41627;SDS011;27321;50.816;6.054;2022-09-03T04:50:14;1.30;;;0.90;;
41627;SDS011;27321;50.816;6.054;2022-09-03T04:53:15;1.10;;;1.02;;
41627;SDS011;27321;50.816;6.054;2022-09-03T04:56:20;1.10;;;1.00;;
41627;SDS011;27321;50.816;6.054;2022-09-03T04:59:25;2.10;;;1.10;;
41627;SDS011;27321;50.816;6.054;2022-09-03T05:02:25;1.27;;;0.80;;
41627;SDS011;27321;50.816;6.054;2022-09-03T05:05:27;1.30;;;1.13;;
41627;SDS011;27321;50.816;6.054;2022-09-03T05:08:28;1.20;;;1.00;;
41627;SDS011;27321;50.816;6.054;2022-09-03T05:11:29;1.10;;;1.00;;
41627;SDS011;27321;50.816;6.054;2022-09-03T05:14:33;1.27;;;1.13;;
41627;SDS011;27321;50.816;6.054;2022-09-03T05:17:34;2.80;;;1.00;;
41627;SDS011;27321;50.816;6.054;2022-09-03T05:20:38;0.82;;;0.80;;
41627;SDS011;27321;50.816;6.054;2022-09-03T05:23:39;0.90;;;0.90;;
41627;SDS011;27321;50.816;6.054;2022-09-03T05:26:42;0.80;;;0.80;;
41627;SDS011;27321;50.816;6.054;2022-09-03T05:29:44;1.33;;;1.20;;
41627;SDS011;27321;50.816;6.054;2022-09-03T05:32:45;1.20;;;1.10;;
41627;SDS011;27321;50.816;6.054;2022-09-03T05:35:46;1.15;;;1.00;;
41627;SDS011;27321;50.816;6.054;2022-09-03T05:38:48;1.52;;;1.13;;
41627;SDS011;27321;50.816;6.054;2022-09-03T05:41:55;1.35;;;0.90;;
41627;SDS011;27321;50.816;6.054;2022-09-03T05:44:56;1.10;;;0.98;;
41627;SDS011;27321;50.816;6.054;2022-09-03T05:47:58;0.82;;;0.82;;
41627;SDS011;27321;50.816;6.054;2022-09-03T05:51:03;1.30;;;1.20;;
41627;SDS011;27321;50.816;6.054;2022-09-03T05:54:19;1.67;;;0.90;;
41627;SDS011;27321;50.816;6.054;2022-09-03T05:57:25;1.00;;;0.90;;
41627;SDS011;27321;50.816;6.054;2022-09-03T06:00:29;1.08;;;0.90;;
41627;SDS011;27321;50.816;6.054;2022-09-03T06:03:37;0.98;;;0.88;;
41627;SDS011;27321;50.816;6.054;2022-09-03T06:06:39;0.73;;;0.73;;
41627;SDS011;27321;50.816;6.054;2022-09-03T06:09:42;1.05;;;0.82;;
41627;SDS011;27321;50.816;6.054;2022-09-03T06:12:43;1.30;;;0.80;;
41627;SDS011;27321;50.816;6.054;2022-09-03T06:18:46;0.80;;;0.80;;
41627;SDS011;27321;50.816;6.054;2022-09-03T06:21:46;0.95;;;0.80;;
41627;SDS011;27321;50.816;6.054;2022-09-03T06:24:48;1.13;;;0.90;;
41627;SDS011;27321;50.816;6.054;2022-09-03T06:27:49;0.68;;;0.68;;
41627;SDS011;27321;50.816;6.054;2022-09-03T06:30:50;0.85;;;0.80;;
41627;SDS011;27321;50.816;6.054;2022-09-03T06:33:51;1.15;;;0.80;;
41627;SDS011;27321;50.816;6.054;2022-09-03T06:36:53;1.58;;;0.82;;
41627;SDS011;27321;50.816;6.054;2022-09-03T06:39:54;0.82;;;0.82;;
41627;SDS011;27321;50.816;6.054;2022-09-03T06:42:56;0.88;;;0.88;;
41627;SDS011;27321;50.816;6.054;2022-09-03T06:49:05;0.88;;;0.88;;
41627;SDS011;27321;50.816;6.054;2022-09-03T06:52:07;0.98;;;0.98;;
41627;SDS011;27321;50.816;6.054;2022-09-03T06:55:08;0.80;;;0.80;;
41627;SDS011;27321;50.816;6.054;2022-09-03T06:58:09;0.80;;;0.80;;
41627;SDS011;27321;50.816;6.054;2022-09-03T07:01:15;1.15;;;0.95;;
41627;SDS011;27321;50.816;6.054;2022-09-03T07:04:18;1.70;;;1.15;;
41627;SDS011;27321;50.816;6.054;2022-09-03T07:07:19;0.95;;;0.93;;
41627;SDS011;27321;50.816;6.054;2022-09-03T07:10:21;0.98;;;0.88;;
41627;SDS011;27321;50.816;6.054;2022-09-03T07:13:22;0.80;;;0.80;;
41627;SDS011;27321;50.816;6.054;2022-09-03T07:19:27;2.03;;;1.10;;
41627;SDS011;27321;50.816;6.054;2022-09-03T07:22:28;1.55;;;1.25;;
41627;SDS011;27321;50.816;6.054;2022-09-03T07:25:31;1.60;;;1.00;;
41627;SDS011;27321;50.816;6.054;2022-09-03T07:28:33;1.45;;;1.10;;
41627;SDS011;27321;50.816;6.054;2022-09-03T07:31:37;1.38;;;1.10;;
41627;SDS011;27321;50.816;6.054;2022-09-03T07:34:41;1.20;;;1.10;;
41627;SDS011;27321;50.816;6.054;2022-09-03T07:37:43;0.93;;;0.90;;
41627;SDS011;27321;50.816;6.054;2022-09-03T07:40:45;0.85;;;0.82;;
41627;SDS011;27321;50.816;6.054;2022-09-03T07:43:48;1.25;;;0.95;;
41627;SDS011;27321;50.816;6.054;2022-09-03T07:46:50;0.82;;;0.82;;
41627;SDS011;27321;50.816;6.054;2022-09-03T07:49:52;2.80;;;0.93;;
41627;SDS011;27321;50.816;6.054;2022-09-03T07:52:56;0.93;;;0.93;;
41627;SDS011;27321;50.816;6.054;2022-09-03T07:56:02;1.80;;;1.00;;
41627;SDS011;27321;50.816;6.054;2022-09-03T07:59:06;0.90;;;0.90;;
41627;SDS011;27321;50.816;6.054;2022-09-03T08:02:07;1.00;;;1.00;;
41627;SDS011;27321;50.816;6.054;2022-09-03T08:08:10;2.25;;;1.05;;
41627;SDS011;27321;50.816;6.054;2022-09-03T08:11:14;1.00;;;1.00;;
41627;SDS011;27321;50.816;6.054;2022-09-03T08:14:18;1.50;;;1.35;;
41627;SDS011;27321;50.816;6.054;2022-09-03T08:17:19;1.60;;;1.17;;
41627;SDS011;27321;50.816;6.054;2022-09-03T08:20:21;1.17;;;1.08;;
41627;SDS011;27321;50.816;6.054;2022-09-03T08:23:22;0.93;;;0.93;;
41627;SDS011;27321;50.816;6.054;2022-09-03T08:26:24;1.20;;;1.10;;
41627;SDS011;27321;50.816;6.054;2022-09-03T08:29:25;1.38;;;1.27;;
41627;SDS011;27321;50.816;6.054;2022-09-03T08:32:26;1.40;;;1.30;;
41627;SDS011;27321;50.816;6.054;2022-09-03T08:35:27;1.17;;;1.17;;
41627;SDS011;27321;50.816;6.054;2022-09-03T08:38:31;1.30;;;1.20;;
41627;SDS011;27321;50.816;6.054;2022-09-03T08:45:12;1.02;;;1.02;;
41627;SDS011;27321;50.816;6.054;2022-09-03T08:48:19;1.40;;;1.30;;
41627;SDS011;27321;50.816;6.054;2022-09-03T08:51:22;1.10;;;1.10;;
41627;SDS011;27321;50.816;6.054;2022-09-03T08:54:28;1.50;;;1.27;;
41627;SDS011;27321;50.816;6.054;2022-09-03T08:57:31;1.20;;;1.00;;
41627;SDS011;27321;50.816;6.054;2022-09-03T09:00:48;1.40;;;1.30;;
41627;SDS011;27321;50.816;6.054;2022-09-03T09:04:20;1.23;;;1.20;;
41627;SDS011;27321;50.816;6.054;2022-09-03T09:07:42;1.30;;;1.17;;
41627;SDS011;27321;50.816;6.054;2022-09-03T09:24:24;2.05;;;1.42;;
41627;SDS011;27321;50.816;6.054;2022-09-03T09:27:29;2.13;;;1.23;;
41627;SDS011;27321;50.816;6.054;2022-09-03T09:30:32;1.02;;;1.02;;
41627;SDS011;27321;50.816;6.054;2022-09-03T09:33:33;1.30;;;1.20;;
41627;SDS011;27321;50.816;6.054;2022-09-03T09:36:55;1.40;;;1.30;;
41627;SDS011;27321;50.816;6.054;2022-09-03T09:43:10;1.30;;;1.20;;
41627;SDS011;27321;50.816;6.054;2022-09-03T09:46:20;1.20;;;1.10;;
41627;SDS011;27321;50.816;6.054;2022-09-03T09:49:30;1.20;;;1.10;;
41627;SDS011;27321;50.816;6.054;2022-09-03T09:52:36;1.17;;;1.08;;
41627;SDS011;27321;50.816;6.054;2022-09-03T09:55:46;1.17;;;1.15;;
41627;SDS011;27321;50.816;6.054;2022-09-03T09:59:01;0.95;;;0.95;;
41627;SDS011;27321;50.816;6.054;2022-09-03T10:02:11;1.30;;;1.20;;
41627;SDS011;27321;50.816;6.054;2022-09-03T10:05:23;1.50;;;1.40;;
41627;SDS011;27321;50.816;6.054;2022-09-03T10:08:37;1.60;;;1.50;;
41627;SDS011;27321;50.816;6.054;2022-09-03T10:11:39;2.88;;;1.65;;
41627;SDS011;27321;50.816;6.054;2022-09-03T10:14:54;1.60;;;1.50;;
41627;SDS011;27321;50.816;6.054;2022-09-03T10:18:14;1.50;;;1.40;;
41627;SDS011;27321;50.816;6.054;2022-09-03T10:24:58;1.35;;;1.25;;
41627;SDS011;27321;50.816;6.054;2022-09-03T10:28:02;1.70;;;1.60;;
41627;SDS011;27321;50.816;6.054;2022-09-03T10:38:33;1.17;;;1.17;;
41627;SDS011;27321;50.816;6.054;2022-09-03T10:45:31;2.53;;;1.90;;
41627;SDS011;27321;50.816;6.054;2022-09-03T10:48:44;6.13;;;2.70;;
41627;SDS011;27321;50.816;6.054;2022-09-03T10:59:22;5.10;;;2.63;;
41627;SDS011;27321;50.816;6.054;2022-09-03T11:09:17;2.00;;;1.80;;
41627;SDS011;27321;50.816;6.054;2022-09-03T11:12:31;2.22;;;2.03;;
41627;SDS011;27321;50.816;6.054;2022-09-03T11:15:42;2.28;;;2.08;;
41627;SDS011;27321;50.816;6.054;2022-09-03T11:19:06;2.67;;;2.30;;
41627;SDS011;27321;50.816;6.054;2022-09-03T11:22:11;1.90;;;1.80;;
41627;SDS011;27321;50.816;6.054;2022-09-03T11:25:18;2.17;;;1.98;;
41627;SDS011;27321;50.816;6.054;2022-09-03T11:32:00;3.00;;;2.28;;
41627;SDS011;27321;50.816;6.054;2022-09-03T11:35:53;2.38;;;2.13;;
41627;SDS011;27321;50.816;6.054;2022-09-03T11:38:35;3.00;;;2.38;;
41627;SDS011;27321;50.816;6.054;2022-09-03T11:41:38;2.17;;;2.05;;
41627;SDS011;27321;50.816;6.054;2022-09-03T11:47:43;2.20;;;2.00;;
41627;SDS011;27321;50.816;6.054;2022-09-03T11:50:51;2.67;;;2.40;;
41627;SDS011;27321;50.816;6.054;2022-09-03T11:54:04;2.75;;;2.13;;
41627;SDS011;27321;50.816;6.054;2022-09-03T11:57:26;2.50;;;2.30;;
41627;SDS011;27321;50.816;6.054;2022-09-03T12:00:30;2.35;;;2.15;;
41627;SDS011;27321;50.816;6.054;2022-09-03T12:03:48;2.30;;;2.10;;
41627;SDS011;27321;50.816;6.054;2022-09-03T12:21:09;2.05;;;1.85;;
41627;SDS011;27321;50.816;6.054;2022-09-03T12:24:10;3.30;;;2.15;;
41627;SDS011;27321;50.816;6.054;2022-09-03T12:30:25;2.05;;;1.95;;
41627;SDS011;27321;50.816;6.054;2022-09-03T12:33:26;4.05;;;2.20;;
41627;SDS011;27321;50.816;6.054;2022-09-03T12:39:52;2.00;;;1.73;;
41627;SDS011;27321;50.816;6.054;2022-09-03T12:42:59;2.97;;;1.73;;
41627;SDS011;27321;50.816;6.054;2022-09-03T12:46:13;1.90;;;1.80;;
41627;SDS011;27321;50.816;6.054;2022-09-03T12:49:14;2.00;;;1.90;;
41627;SDS011;27321;50.816;6.054;2022-09-03T12:58:50;1.80;;;1.70;;
41627;SDS011;27321;50.816;6.054;2022-09-03T13:02:00;1.67;;;1.58;;
41627;SDS011;27321;50.816;6.054;2022-09-03T13:05:17;1.73;;;1.60;;
41627;SDS011;27321;50.816;6.054;2022-09-03T13:08:31;1.88;;;1.77;;
41627;SDS011;27321;50.816;6.054;2022-09-03T13:11:44;1.80;;;1.70;;
41627;SDS011;27321;50.816;6.054;2022-09-03T13:14:48;1.92;;;1.70;;
41627;SDS011;27321;50.816;6.054;2022-09-03T13:25:22;3.13;;;2.20;;
41627;SDS011;27321;50.816;6.054;2022-09-03T13:28:36;2.33;;;1.90;;
41627;SDS011;27321;50.816;6.054;2022-09-03T13:32:50;2.08;;;1.80;;
41627;SDS011;27321;50.816;6.054;2022-09-03T13:36:08;2.10;;;1.95;;
41627;SDS011;27321;50.816;6.054;2022-09-03T13:39:20;2.80;;;1.92;;
41627;SDS011;27321;50.816;6.054;2022-09-03T13:45:37;2.35;;;2.15;;
41627;SDS011;27321;50.816;6.054;2022-09-03T13:48:44;2.05;;;1.90;;
41627;SDS011;27321;50.816;6.054;2022-09-03T13:52:10;2.40;;;2.17;;
41627;SDS011;27321;50.816;6.054;2022-09-03T13:58:59;2.33;;;2.15;;
41627;SDS011;27321;50.816;6.054;2022-09-03T14:02:51;1.88;;;1.77;;
41627;SDS011;27321;50.816;6.054;2022-09-03T14:06:28;2.13;;;1.92;;
41627;SDS011;27321;50.816;6.054;2022-09-03T14:10:29;2.15;;;1.95;;
41627;SDS011;27321;50.816;6.054;2022-09-03T14:13:41;1.90;;;1.80;;
41627;SDS011;27321;50.816;6.054;2022-09-03T14:17:34;1.70;;;1.60;;
41627;SDS011;27321;50.816;6.054;2022-09-03T14:21:02;1.80;;;1.70;;
41627;SDS011;27321;50.816;6.054;2022-09-03T14:24:19;1.73;;;1.63;;
41627;SDS011;27321;50.816;6.054;2022-09-03T14:27:47;1.88;;;1.77;;
41627;SDS011;27321;50.816;6.054;2022-09-03T14:30:54;2.00;;;1.90;;
41627;SDS011;27321;50.816;6.054;2022-09-03T14:45:13;2.55;;;2.35;;
41627;SDS011;27321;50.816;6.054;2022-09-03T15:19:12;2.38;;;2.28;;
41627;SDS011;27321;50.816;6.054;2022-09-03T15:33:10;2.40;;;2.30;;
41627;SDS011;27321;50.816;6.054;2022-09-03T15:36:26;2.22;;;2.03;;
41627;SDS011;27321;50.816;6.054;2022-09-03T15:39:41;2.40;;;2.20;;
41627;SDS011;27321;50.816;6.054;2022-09-03T15:42:46;2.97;;;2.50;;
41627;SDS011;27321;50.816;6.054;2022-09-03T15:46:11;2.60;;;2.40;;
41627;SDS011;27321;50.816;6.054;2022-09-03T15:49:59;2.38;;;2.17;;
41627;SDS011;27321;50.816;6.054;2022-09-03T15:57:06;2.38;;;2.22;;
41627;SDS011;27321;50.816;6.054;2022-09-03T16:00:21;1.90;;;1.80;;
41627;SDS011;27321;50.816;6.054;2022-09-03T16:03:37;2.10;;;2.00;;
41627;SDS011;27321;50.816;6.054;2022-09-03T16:07:01;2.30;;;2.10;;
41627;SDS011;27321;50.816;6.054;2022-09-03T16:10:15;2.60;;;2.40;;
41627;SDS011;27321;50.816;6.054;2022-09-03T16:20:14;2.00;;;1.90;;
41627;SDS011;27321;50.816;6.054;2022-09-03T16:27:51;2.17;;;2.08;;
41627;SDS011;27321;50.816;6.054;2022-09-03T16:34:38;2.30;;;2.10;;
41627;SDS011;27321;50.816;6.054;2022-09-03T16:48:16;2.97;;;2.30;;
41627;SDS011;27321;50.816;6.054;2022-09-03T16:51:53;2.10;;;1.90;;
41627;SDS011;27321;50.816;6.054;2022-09-03T16:55:26;2.38;;;2.17;;
41627;SDS011;27321;50.816;6.054;2022-09-03T16:59:08;1.92;;;1.83;;
41627;SDS011;27321;50.816;6.054;2022-09-03T17:02:45;2.40;;;2.23;;
41627;SDS011;27321;50.816;6.054;2022-09-03T17:09:59;2.08;;;1.98;;
41627;SDS011;27321;50.816;6.054;2022-09-03T17:24:12;2.10;;;2.00;;
41627;SDS011;27321;50.816;6.054;2022-09-03T17:51:57;1.73;;;1.63;;
41627;SDS011;27321;50.816;6.054;2022-09-03T17:55:23;1.77;;;1.67;;
41627;SDS011;27321;50.816;6.054;2022-09-03T17:58:41;1.70;;;1.60;;
41627;SDS011;27321;50.816;6.054;2022-09-03T18:01:57;1.63;;;1.60;;
41627;SDS011;27321;50.816;6.054;2022-09-03T18:09:01;2.00;;;1.90;;
41627;SDS011;27321;50.816;6.054;2022-09-03T18:15:47;2.33;;;2.20;;
41627;SDS011;27321;50.816;6.054;2022-09-03T18:19:13;2.00;;;1.90;;
41627;SDS011;27321;50.816;6.054;2022-09-03T18:23:01;2.15;;;2.03;;
41627;SDS011;27321;50.816;6.054;2022-09-03T18:26:45;2.08;;;1.88;;
41627;SDS011;27321;50.816;6.054;2022-09-03T18:30:11;2.05;;;1.95;;
41627;SDS011;27321;50.816;6.054;2022-09-03T18:33:35;2.20;;;2.10;;
41627;SDS011;27321;50.816;6.054;2022-09-03T18:36:56;2.50;;;2.30;;
41627;SDS011;27321;50.816;6.054;2022-09-03T18:40:20;2.15;;;1.98;;
41627;SDS011;27321;50.816;6.054;2022-09-03T18:43:55;1.88;;;1.77;;
41627;SDS011;27321;50.816;6.054;2022-09-03T18:55:19;2.63;;;2.42;;
41627;SDS011;27321;50.816;6.054;2022-09-03T18:59:02;2.30;;;2.10;;
41627;SDS011;27321;50.816;6.054;2022-09-03T19:10:04;2.63;;;2.30;;
41627;SDS011;27321;50.816;6.054;2022-09-03T19:13:34;2.30;;;2.10;;
41627;SDS011;27321;50.816;6.054;2022-09-03T19:17:02;1.73;;;1.63;;
41627;SDS011;27321;50.816;6.054;2022-09-03T19:20:31;1.65;;;1.55;;
41627;SDS011;27321;50.816;6.054;2022-09-03T19:23:56;1.75;;;1.65;;
41627;SDS011;27321;50.816;6.054;2022-09-03T19:27:40;1.88;;;1.60;;
41627;SDS011;27321;50.816;6.054;2022-09-03T19:38:36;1.50;;;1.40;;
41627;SDS011;27321;50.816;6.054;2022-09-03T19:42:10;1.50;;;1.40;;
41627;SDS011;27321;50.816;6.054;2022-09-03T19:46:13;1.80;;;1.70;;
41627;SDS011;27321;50.816;6.054;2022-09-03T19:49:57;1.58;;;1.48;;
41627;SDS011;27321;50.816;6.054;2022-09-03T19:53:41;1.60;;;1.50;;
41627;SDS011;27321;50.816;6.054;2022-09-03T19:57:01;1.50;;;1.40;;
41627;SDS011;27321;50.816;6.054;2022-09-03T20:00:22;1.23;;;1.20;;
41627;SDS011;27321;50.816;6.054;2022-09-03T20:03:41;1.45;;;1.35;;
41627;SDS011;27321;50.816;6.054;2022-09-03T20:07:03;1.70;;;1.60;;
41627;SDS011;27321;50.816;6.054;2022-09-03T20:10:27;1.63;;;1.52;;
41627;SDS011;27321;50.816;6.054;2022-09-03T20:13:28;1.58;;;1.48;;
41627;SDS011;27321;50.816;6.054;2022-09-03T20:27:04;1.80;;;1.67;;
41627;SDS011;27321;50.816;6.054;2022-09-03T20:31:00;2.92;;;1.90;;
41627;SDS011;27321;50.816;6.054;2022-09-03T20:40:45;1.50;;;1.30;;
41627;SDS011;27321;50.816;6.054;2022-09-03T20:51:03;1.73;;;1.63;;
41627;SDS011;27321;50.816;6.054;2022-09-03T20:54:28;1.50;;;1.40;;
41627;SDS011;27321;50.816;6.054;2022-09-03T21:01:04;1.50;;;1.35;;
41627;SDS011;27321;50.816;6.054;2022-09-03T21:11:18;1.58;;;1.48;;
41627;SDS011;27321;50.816;6.054;2022-09-03T21:14:58;1.25;;;1.15;;
41627;SDS011;27321;50.816;6.054;2022-09-03T21:18:27;1.40;;;1.30;;
41627;SDS011;27321;50.816;6.054;2022-09-03T21:22:21;0.93;;;0.93;;
41627;SDS011;27321;50.816;6.054;2022-09-03T21:32:10;1.33;;;1.23;;
41627;SDS011;27321;50.816;6.054;2022-09-03T21:35:29;1.73;;;1.30;;
41627;SDS011;27321;50.816;6.054;2022-09-03T21:38:40;1.23;;;1.23;;
41627;SDS011;27321;50.816;6.054;2022-09-03T21:45:05;1.40;;;1.30;;
41627;SDS011;27321;50.816;6.054;2022-09-03T21:54:51;1.30;;;1.20;;
41627;SDS011;27321;50.816;6.054;2022-09-03T22:01:17;1.60;;;1.38;;
41627;SDS011;27321;50.816;6.054;2022-09-03T22:04:41;1.40;;;1.30;;
41627;SDS011;27321;50.816;6.054;2022-09-03T22:11:04;1.70;;;1.48;;
41627;SDS011;27321;50.816;6.054;2022-09-03T22:14:23;1.70;;;1.60;;
41627;SDS011;27321;50.816;6.054;2022-09-03T22:17:47;1.40;;;1.30;;
41627;SDS011;27321;50.816;6.054;2022-09-03T22:21:02;1.60;;;1.50;;
41627;SDS011;27321;50.816;6.054;2022-09-03T22:37:44;1.15;;;1.15;;
41627;SDS011;27321;50.816;6.054;2022-09-03T22:51:45;1.10;;;1.00;;
41627;SDS011;27321;50.816;6.054;2022-09-03T22:55:21;1.40;;;1.25;;
41627;SDS011;27321;50.816;6.054;2022-09-03T22:58:25;0.90;;;0.90;;
41627;SDS011;27321;50.816;6.054;2022-09-03T23:05:03;0.90;;;0.90;;
41627;SDS011;27321;50.816;6.054;2022-09-03T23:08:14;0.80;;;0.80;;
41627;SDS011;27321;50.816;6.054;2022-09-03T23:11:25;1.00;;;0.95;;
41627;SDS011;27321;50.816;6.054;2022-09-03T23:14:35;1.08;;;1.00;;
41627;SDS011;27321;50.816;6.054;2022-09-03T23:21:21;0.90;;;0.90;;
41627;SDS011;27321;50.816;6.054;2022-09-03T23:28:23;2.83;;;1.10;;
41627;SDS011;27321;50.816;6.054;2022-09-03T23:31:32;1.02;;;1.00;;
41627;SDS011;27321;50.816;6.054;2022-09-03T23:34:34;0.85;;;0.85;;
41627;SDS011;27321;50.816;6.054;2022-09-03T23:40:56;0.90;;;0.90;;
41627;SDS011;27321;50.816;6.054;2022-09-03T23:45:07;1.10;;;0.95;;
41627;SDS011;27321;50.816;6.054;2022-09-03T23:47:52;0.88;;;0.88;;
41627;SDS011;27321;50.816;6.054;2022-09-03T23:51:21;1.08;;;1.08;;
